Ozgur Aksoy — 9HA2587 — position and weather

sailwx.info

Track history (hours):
 
Tides and Currents Weather Stations Pressure Air Temp Water Temp Dewpoint Dewpoint Depression Visibility Wind Speed Wind Dir Waves Ship Positions

Ozgur Aksoy

Last reported at 2018-May-31 17:38 UTC. Time now 2018-Jun-22 09:30 UTC.
Position S 34°03' E 017°41'.
Warning: this ship's position is 21 days out of date.

Length 196 m; draft 13.6 m.

Type: Cargo ship. MMSI: 248950000.

Date/timePositionNaut miles runAvg speedWind from/ knotsBaromVisibWave heightAir tempDewpointWater temp
2018-May-31 17:38S 34°03' E 017°41'1 6.2
2018-May-31 17:28S 34°04' E 017°42'4 7.0
2018-May-31 16:56S 34°06' E 017°45'3 7.5
2018-May-31 16:30S 34°09' E 017°48'4 8.0
2018-May-31 15:59S 34°11' E 017°52'4 7.9
2018-May-31 15:30S 34°14' E 017°55'4 8.0
2018-May-31 15:00S 34°16' E 017°59'4 8.2
2018-May-31 14:28S 34°19' E 018°03'4 8.5
2018-May-31 14:00S 34°22' E 018°07'4 7.4
2018-May-31 13:29S 34°24' E 018°10'5 8.8
2018-May-31 12:58S 34°27' E 018°15'4 8.8
2018-May-31 12:30S 34°29' E 018°19'4 8.7
2018-May-31 12:00S 34°31' E 018°24'4 8.6
2018-May-31 11:30S 34°33' E 018°28'4 8.6
2018-May-31 11:00S 34°35' E 018°33'4 8.8
2018-May-31 10:30S 34°37' E 018°38'5 8.9
2018-May-31 10:00S 34°39' E 018°43'4 9.0
2018-May-31 09:30S 34°40' E 018°48'5 9.0
2018-May-31 08:59S 34°42' E 018°53'5 8.8
2018-May-31 08:27S 34°44' E 018°58'  
2018-May-28 22:30S 32°40' E 030°17'1210.7
2018-May-28 21:23S 32°35' E 030°29'410.6
2018-May-28 20:59S 32°33' E 030°34'610.7
2018-May-28 20:27S 32°30' E 030°40'1310.5
2018-May-28 19:11S 32°24' E 030°54'210.3
2018-May-28 19:00S 32°24' E 030°56'610.3
2018-May-28 18:24S 32°21' E 031°03'410.3
2018-May-28 17:58S 32°19' E 031°08'710.5
2018-May-28 17:16S 32°16' E 031°16'311.1
2018-May-28 16:58S 32°15' E 031°19'611.1
2018-May-28 16:28S 32°13' E 031°25'510.8
2018-May-28 16:00S 32°11' E 031°31'610.3
2018-May-28 15:23S 32°09' E 031°38'4 9.4
2018-May-28 14:56S 32°07' E 031°43'  
Track history (hours):
 
Tides and Currents Weather Stations Pressure Air Temp Water Temp Dewpoint Dewpoint Depression Visibility Wind Speed Wind Dir Waves Ship Positions

Ozgur Aksoy

Last reported at 2018-May-31 17:38 UTC. Time now 2018-Jun-22 09:30 UTC.
Position S 34°03' E 017°41'.
Warning: this ship's position is 21 days out of date.

Length 196 m; draft 13.6 m.

Type: Cargo ship. MMSI: 248950000.

Date/timePositionNaut miles runAvg speedWind from/ knotsBaromVisibWave heightAir tempDewpointWater temp
2018-May-31 17:38S 34°03' E 017°41'1 6.2
2018-May-31 17:28S 34°04' E 017°42'4 7.0
2018-May-31 16:56S 34°06' E 017°45'3 7.5
2018-May-31 16:30S 34°09' E 017°48'4 8.0
2018-May-31 15:59S 34°11' E 017°52'4 7.9
2018-May-31 15:30S 34°14' E 017°55'4 8.0
2018-May-31 15:00S 34°16' E 017°59'4 8.2
2018-May-31 14:28S 34°19' E 018°03'4 8.5
2018-May-31 14:00S 34°22' E 018°07'4 7.4
2018-May-31 13:29S 34°24' E 018°10'5 8.8
2018-May-31 12:58S 34°27' E 018°15'4 8.8
2018-May-31 12:30S 34°29' E 018°19'4 8.7
2018-May-31 12:00S 34°31' E 018°24'4 8.6
2018-May-31 11:30S 34°33' E 018°28'4 8.6
2018-May-31 11:00S 34°35' E 018°33'4 8.8
2018-May-31 10:30S 34°37' E 018°38'5 8.9
2018-May-31 10:00S 34°39' E 018°43'4 9.0
2018-May-31 09:30S 34°40' E 018°48'5 9.0
2018-May-31 08:59S 34°42' E 018°53'5 8.8
2018-May-31 08:27S 34°44' E 018°58'  
2018-May-28 22:30S 32°40' E 030°17'1210.7
2018-May-28 21:23S 32°35' E 030°29'410.6
2018-May-28 20:59S 32°33' E 030°34'610.7
2018-May-28 20:27S 32°30' E 030°40'1310.5
2018-May-28 19:11S 32°24' E 030°54'210.3
2018-May-28 19:00S 32°24' E 030°56'610.3
2018-May-28 18:24S 32°21' E 031°03'410.3
2018-May-28 17:58S 32°19' E 031°08'710.5
2018-May-28 17:16S 32°16' E 031°16'311.1
2018-May-28 16:58S 32°15' E 031°19'611.1
2018-May-28 16:28S 32°13' E 031°25'510.8
2018-May-28 16:00S 32°11' E 031°31'610.3
2018-May-28 15:23S 32°09' E 031°38'4 9.4
2018-May-28 14:56S 32°07' E 031°43'  

Dump ship's entire track history